createdAt,value
2019-01-13T00:03:21.091Z,99651.67
2019-01-13T00:05:49.465Z,99654.09
2019-01-13T00:08:37.110Z,99656.63
2019-01-13T00:11:24.599Z,99657.30
2019-01-13T00:13:52.977Z,99651.19
2019-01-13T00:16:40.690Z,99662.27
2019-01-13T00:19:28.311Z,99659.36
2019-01-13T00:21:56.694Z,99657.19
2019-01-13T00:24:44.193Z,99664.89
2019-01-13T00:27:12.561Z,99670.98
2019-01-13T00:30:00.271Z,99665.25
2019-01-13T00:32:28.659Z,99658.70
2019-01-13T00:34:57.027Z,99664.59
2019-01-13T00:37:25.395Z,99660.66
2019-01-13T00:39:53.775Z,99657.11
2019-01-13T00:42:41.399Z,99651.27
2019-01-13T00:45:49.678Z,99657.39
2019-01-13T00:48:18.058Z,99657.75
2019-01-13T00:50:46.430Z,99661.97
2019-01-13T00:55:49.167Z,99659.91
2019-01-13T00:58:17.546Z,99656.36
2019-01-13T01:00:45.924Z,99649.41
2019-01-13T01:03:33.555Z,99653.26
2019-01-13T01:06:21.042Z,99652.98
2019-01-13T01:16:34.939Z,99631.86
2019-01-13T01:21:37.721Z,99634.41
2019-01-13T01:24:06.103Z,99627.09
2019-01-13T01:26:53.592Z,99631.22
2019-01-13T01:29:21.969Z,99627.56
2019-01-13T01:34:39.412Z,99632.14
2019-01-13T01:37:27.026Z,99635.16
2019-01-13T01:39:55.404Z,99634.88
2019-01-13T01:42:43.021Z,99628.39
2019-01-13T01:45:51.314Z,99626.05
2019-01-13T01:48:19.681Z,99629.23
2019-01-13T01:53:21.798Z,99619.13
2019-01-13T01:55:50.177Z,99626.32
2019-01-13T01:58:18.540Z,99631.50
2019-01-13T02:00:46.924Z,99626.73
2019-01-13T02:03:34.439Z,99630.55
2019-01-13T02:09:09.363Z,99626.53
2019-01-13T02:11:37.730Z,99629.03
2019-01-13T02:14:25.618Z,99625.22
2019-01-13T02:16:53.998Z,99622.48
2019-01-13T02:19:41.500Z,99616.03
2019-01-13T02:22:49.777Z,99624.11
2019-01-13T02:25:58.075Z,99622.79
2019-01-13T02:28:26.775Z,99613.21
2019-01-13T02:30:55.154Z,99613.41
2019-01-13T02:33:42.856Z,99605.35
2019-01-13T02:36:11.240Z,99606.30
2019-01-13T02:44:40.236Z,99606.86
2019-01-13T02:47:27.728Z,99623.55
2019-01-13T02:49:56.108Z,99616.60
2019-01-13T02:52:43.592Z,99619.26
2019-01-13T02:55:51.881Z,99618.86
2019-01-13T02:58:39.493Z,99624.59
2019-01-13T03:01:27.117Z,99615.13
2019-01-13T03:04:14.607Z,99617.27
2019-01-13T03:07:02.109Z,99612.73
2019-01-13T03:09:49.976Z,99617.27
2019-01-13T03:12:37.636Z,99607.00
2019-01-13T03:15:45.888Z,99602.55
2019-01-13T03:18:14.252Z,99599.80
2019-01-13T03:21:01.971Z,99608.52
2019-01-13T03:23:49.674Z,99597.45
2019-01-13T03:26:18.061Z,99598.23
2019-01-13T03:28:46.427Z,99592.81
2019-01-13T03:31:14.841Z,99594.21
2019-01-13T03:33:43.198Z,99589.24
2019-01-13T03:36:11.579Z,99593.37
2019-01-13T03:38:59.196Z,99593.52
2019-01-13T03:44:22.237Z,99582.42
2019-01-13T03:47:09.865Z,99573.68
2019-01-13T03:49:38.237Z,99571.72
2019-01-13T03:52:52.716Z,99558.06
2019-01-13T03:55:56.533Z,99563.27
2019-01-13T03:58:44.023Z,99555.12
2019-01-13T04:01:18.512Z,99549.63
2019-01-13T04:03:42.494Z,99544.50
2019-01-13T04:06:29.990Z,99532.09
2019-01-13T04:09:17.609Z,99534.33
2019-01-13T04:14:39.606Z,99525.59
2019-01-13T04:20:02.365Z,99510.30
2019-01-13T04:25:44.638Z,99511.41
2019-01-13T04:28:13.016Z,99501.33
2019-01-13T04:31:00.648Z,99494.88
2019-01-13T04:33:48.138Z,99486.91
2019-01-13T04:36:16.520Z,99485.69
2019-01-13T04:39:04.006Z,99491.39
2019-01-13T04:41:32.393Z,99485.87
2019-01-13T04:44:00.758Z,99485.30
2019-01-13T04:46:29.137Z,99480.77
2019-01-13T04:48:57.511Z,99481.88
2019-01-13T04:51:45.145Z,99476.17
2019-01-13T04:54:13.513Z,99487.69
2019-01-13T04:57:01.020Z,99474.02
2019-01-13T04:59:29.389Z,99482.20
2019-01-13T05:02:17.029Z,99482.94
2019-01-13T05:04:45.393Z,99471.99
2019-01-13T05:07:13.780Z,99474.77
2019-01-13T05:09:42.216Z,99469.55
2019-01-13T05:12:29.709Z,99464.38
2019-01-13T05:14:58.082Z,99466.30
2019-01-13T05:17:45.712Z,99460.77
2019-01-13T05:23:20.861Z,99448.05
2019-01-13T05:26:08.487Z,99433.97
2019-01-13T05:28:36.866Z,99439.91
2019-01-13T05:31:24.587Z,99428.72
2019-01-13T05:33:52.972Z,99420.92
2019-01-13T05:36:40.684Z,99418.60
2019-01-13T05:39:09.062Z,99428.63
2019-01-13T05:41:37.440Z,99412.48
2019-01-13T05:44:25.069Z,99409.19
2019-01-13T05:46:53.438Z,99406.66
2019-01-13T05:49:40.932Z,99408.88
2019-01-13T05:52:28.565Z,99402.70
2019-01-13T05:55:16.058Z,99401.43
2019-01-13T05:58:24.351Z,99392.37
2019-01-13T06:00:52.726Z,99395.89
2019-01-13T06:03:21.100Z,99392.16
2019-01-13T06:06:08.585Z,99387.22
2019-01-13T06:08:56.091Z,99380.66
2019-01-13T06:11:24.457Z,99378.98
2019-01-13T06:14:11.956Z,99381.34
2019-01-13T06:16:40.326Z,99372.77
2019-01-13T06:19:27.954Z,99369.88
2019-01-13T06:21:56.378Z,99373.25
2019-01-13T06:24:43.959Z,99371.58
2019-01-13T06:27:31.578Z,99356.20
2019-01-13T06:29:59.964Z,99359.05
2019-01-13T06:32:28.344Z,99360.84
2019-01-13T06:34:56.729Z,99353.21
2019-01-13T06:37:25.404Z,99356.02
2019-01-13T06:39:53.789Z,99355.89
2019-01-13T06:42:22.160Z,99348.60
2019-01-13T06:45:09.790Z,99349.40
2019-01-13T06:47:38.160Z,99347.25
2019-01-13T06:50:46.450Z,99340.98
2019-01-13T06:53:34.111Z,99309.33
2019-01-13T06:56:02.444Z,99312.86
2019-01-13T06:58:30.820Z,99312.28
2019-01-13T07:00:59.193Z,99313.06
2019-01-13T07:03:46.821Z,99308.37
2019-01-13T07:06:15.193Z,99302.58
2019-01-13T07:08:43.574Z,99298.31
2019-01-13T07:11:11.941Z,99298.03
2019-01-13T07:13:59.576Z,99291.30
2019-01-13T07:16:27.941Z,99283.70
2019-01-13T07:19:15.432Z,99271.53
2019-01-13T07:22:02.920Z,99266.28
2019-01-13T07:24:50.416Z,99263.64
2019-01-13T07:27:37.901Z,99262.59
2019-01-13T07:30:46.190Z,99259.94
2019-01-13T07:36:02.002Z,99229.48
2019-01-13T07:38:30.369Z,99224.05
2019-01-13T07:41:17.865Z,99212.48
2019-01-13T07:43:46.235Z,99211.02
2019-01-13T07:46:14.613Z,99199.40
2019-01-13T07:48:42.981Z,99193.25
2019-01-13T07:51:30.478Z,99179.13
2019-01-13T07:54:17.970Z,99183.09
2019-01-13T07:56:46.336Z,99180.80
2019-01-13T07:59:33.834Z,99173.48
2019-01-13T08:02:02.203Z,99165.69
2019-01-13T08:04:30.585Z,99154.50
2019-01-13T08:07:18.074Z,99157.45
2019-01-13T08:09:46.447Z,99141.77
2019-01-13T08:12:34.066Z,99134.41
2019-01-13T08:15:02.448Z,99124.27
2019-01-13T08:17:30.817Z,99118.51
2019-01-13T08:20:39.106Z,99115.90
2019-01-13T08:23:07.475Z,99109.42
2019-01-13T08:25:55.103Z,99113.95
2019-01-13T08:28:23.469Z,99101.37
2019-01-13T08:31:11.098Z,99091.91
2019-01-13T08:33:58.954Z,99087.73
2019-01-13T08:36:46.582Z,99091.42
2019-01-13T08:39:14.956Z,99076.14
2019-01-13T08:41:43.332Z,99075.53
2019-01-13T08:46:59.140Z,99055.37
2019-01-13T08:49:46.634Z,99065.02
2019-01-13T08:52:15.011Z,99060.47
2019-01-13T08:55:02.633Z,99056.39
2019-01-13T09:00:25.874Z,99041.02
2019-01-13T09:02:54.256Z,99041.66
2019-01-13T09:10:51.704Z,99023.64
2019-01-13T09:13:20.073Z,99023.16
2019-01-13T09:16:07.719Z,99017.68
2019-01-13T09:18:55.205Z,99018.52
2019-01-13T09:21:23.586Z,98998.77
2019-01-13T09:29:32.698Z,98983.13
2019-01-13T09:32:01.078Z,98969.48
2019-01-13T09:34:29.443Z,98966.75
2019-01-13T09:37:17.070Z,98967.94
2019-01-13T09:40:04.694Z,98956.47
2019-01-13T09:42:33.070Z,98950.73
2019-01-13T09:45:20.559Z,98937.45
2019-01-13T09:47:48.979Z,98932.88
2019-01-13T09:53:25.294Z,98934.80
2019-01-13T10:01:02.610Z,98931.34
2019-01-13T10:04:10.892Z,98917.34
2019-01-13T10:06:58.395Z,98901.42
2019-01-13T10:09:26.755Z,98892.44
2019-01-13T10:11:55.141Z,98899.37
2019-01-13T10:14:42.621Z,98894.22
2019-01-13T10:17:11.002Z,98892.70
2019-01-13T10:19:58.625Z,98896.05
2019-01-13T10:22:27.010Z,98885.53
2019-01-13T10:25:14.637Z,98867.73
2019-01-13T10:28:02.130Z,98875.72
2019-01-13T10:31:10.415Z,98867.91
2019-01-13T10:36:12.443Z,98854.18
2019-01-13T10:38:40.844Z,98849.60
2019-01-13T10:41:28.338Z,98849.69
2019-01-13T10:43:56.705Z,98850.41
2019-01-13T10:46:25.080Z,98850.97
2019-01-13T10:49:12.804Z,98841.38
2019-01-13T10:51:41.185Z,98836.94
2019-01-13T10:54:28.674Z,98833.67
2019-01-13T10:56:57.049Z,98833.86
2019-01-13T10:59:44.667Z,98826.00
2019-01-13T11:02:32.235Z,98823.48
2019-01-13T11:08:27.980Z,98811.22
2019-01-13T11:11:15.597Z,98805.87
2019-01-13T11:16:18.086Z,98797.02
2019-01-13T11:19:05.716Z,98794.83
2019-01-13T11:21:34.091Z,98790.23
2019-01-13T11:24:21.735Z,98780.34
2019-01-13T11:26:50.105Z,98780.34
2019-01-13T11:29:18.484Z,98771.58
2019-01-13T11:31:46.863Z,98766.20
2019-01-13T11:36:49.002Z,98750.89
2019-01-13T11:41:56.920Z,98750.23
2019-01-13T11:44:44.586Z,98738.94
2019-01-13T11:47:13.009Z,98737.73
2019-01-13T11:49:41.542Z,98736.95
2019-01-13T11:52:29.252Z,98725.51
2019-01-13T11:54:57.653Z,98724.83
2019-01-13T11:57:45.277Z,98722.00
2019-01-13T12:00:52.253Z,98718.08
2019-01-13T12:03:20.641Z,98704.91
2019-01-13T12:05:49.014Z,98707.55
2019-01-13T12:16:59.868Z,98703.89
2019-01-13T12:24:55.457Z,98687.66
2019-01-13T12:27:42.983Z,98681.63
2019-01-13T12:30:51.351Z,98669.45
2019-01-13T12:33:24.525Z,98675.93
2019-01-13T12:35:49.971Z,98668.69
2019-01-13T12:41:12.104Z,98663.62
2019-01-13T12:43:40.539Z,98656.56
2019-01-13T12:46:08.929Z,98654.31
2019-01-13T12:48:56.636Z,98645.64
2019-01-13T12:51:44.124Z,98648.66
2019-01-13T12:54:31.632Z,98638.35
2019-01-13T12:57:19.128Z,98627.43
2019-01-13T13:02:40.600Z,98612.33
2019-01-13T13:05:48.899Z,98602.20
2019-01-13T13:08:17.287Z,98597.89
2019-01-13T13:10:45.682Z,98587.09
2019-01-13T13:13:33.203Z,98588.71
2019-01-13T13:16:21.049Z,98585.31
2019-01-13T13:19:08.935Z,98579.95
2019-01-13T13:21:56.573Z,98585.28
2019-01-13T13:27:20.231Z,98557.18
2019-01-13T13:32:41.637Z,98569.64
2019-01-13T13:35:10.163Z,98574.91
2019-01-13T13:38:18.509Z,98563.70
2019-01-13T13:40:46.985Z,98567.25
2019-01-13T13:43:15.406Z,98543.55
2019-01-13T13:45:43.847Z,98538.43
2019-01-13T13:48:12.223Z,98524.97
2019-01-13T13:50:40.597Z,98521.93
2019-01-13T13:53:09.046Z,98520.38
2019-01-13T13:55:37.424Z,98515.50
2019-01-13T13:58:06.330Z,98510.44
2019-01-13T14:00:35.749Z,98505.59
2019-01-13T14:03:04.285Z,98498.22
2019-01-13T14:05:32.666Z,98490.95
2019-01-13T14:08:01.038Z,98502.13
2019-01-13T14:10:32.269Z,98492.55
2019-01-13T14:13:00.632Z,98490.81
2019-01-13T14:15:29.027Z,98480.30
2019-01-13T14:17:57.388Z,98467.05
2019-01-13T14:20:25.764Z,98456.88
2019-01-13T14:22:54.136Z,98455.16
2019-01-13T14:25:22.514Z,98445.16
2019-01-13T14:27:51.712Z,98448.69
2019-01-13T14:30:28.120Z,98434.58
2019-01-13T14:32:56.832Z,98428.61
2019-01-13T14:35:25.469Z,98428.24
2019-01-13T14:37:54.184Z,98431.16
2019-01-13T14:40:24.668Z,98414.25
2019-01-13T14:42:53.221Z,98420.30
2019-01-13T14:45:23.328Z,98427.91
2019-01-13T14:47:51.810Z,98416.88
2019-01-13T14:50:25.934Z,98405.45
2019-01-13T14:52:54.549Z,98406.98
2019-01-13T14:55:22.928Z,98403.31
2019-01-13T14:57:51.296Z,98389.87
2019-01-13T15:00:27.524Z,98390.52
2019-01-13T15:02:55.961Z,98375.42
2019-01-13T15:05:24.340Z,98378.27
2019-01-13T15:07:52.981Z,98373.05
2019-01-13T15:10:23.447Z,98362.39
2019-01-13T15:12:51.849Z,98348.66
2019-01-13T15:15:20.229Z,98347.91
2019-01-13T15:17:48.656Z,98350.59
2019-01-13T15:20:19.068Z,98351.20
2019-01-13T15:22:47.883Z,98350.75
2019-01-13T15:25:19.096Z,98343.68
2019-01-13T15:27:47.471Z,98330.89
2019-01-13T15:30:30.171Z,98343.34
2019-01-13T15:32:58.693Z,98333.64
2019-01-13T15:35:27.061Z,98327.06
2019-01-13T15:37:55.436Z,98331.30
2019-01-13T15:40:23.805Z,98338.00
2019-01-13T15:42:52.354Z,98338.75
2019-01-13T15:45:20.794Z,98319.25
2019-01-13T15:47:50.428Z,98319.79
2019-01-13T15:50:23.997Z,98324.56
2019-01-13T15:52:52.441Z,98326.53
2019-01-13T15:55:20.945Z,98307.59
2019-01-13T15:57:49.413Z,98316.38
2019-01-13T16:00:20.587Z,98318.97
2019-01-13T16:02:49.106Z,98316.17
2019-01-13T16:05:17.648Z,98310.09
2019-01-13T16:07:46.026Z,98314.45
2019-01-13T16:10:16.636Z,98319.02
2019-01-13T16:12:45.017Z,98324.97
2019-01-13T16:15:13.925Z,98352.93
2019-01-13T16:17:42.299Z,98363.66
2019-01-13T16:20:16.711Z,98402.36
2019-01-13T16:22:45.090Z,98398.50
2019-01-13T16:25:13.464Z,98386.61
2019-01-13T16:27:41.909Z,98404.77
2019-01-13T16:30:15.874Z,98402.63
2019-01-13T16:32:44.402Z,98383.88
2019-01-13T16:35:12.904Z,98382.86
2019-01-13T16:37:41.498Z,98382.04
2019-01-13T16:40:14.864Z,98385.48
2019-01-13T16:42:43.244Z,98374.66
2019-01-13T16:45:13.765Z,98373.45
2019-01-13T16:47:42.192Z,98382.48
2019-01-13T16:50:19.122Z,98376.42
2019-01-13T16:52:49.942Z,98376.11
2019-01-13T16:55:18.551Z,98374.46
2019-01-13T16:57:46.931Z,98372.06
2019-01-13T17:00:23.361Z,98378.55
2019-01-13T17:02:51.804Z,98365.31
2019-01-13T17:05:21.312Z,98381.39
2019-01-13T17:07:52.391Z,98381.08
2019-01-13T17:10:22.601Z,98374.30
2019-01-13T17:12:51.051Z,98382.13
2019-01-13T17:15:21.555Z,98383.08
2019-01-13T17:17:49.940Z,98383.70
2019-01-13T17:20:20.810Z,98383.19
2019-01-13T17:22:49.357Z,98381.84
2019-01-13T17:25:22.944Z,98375.48
2019-01-13T17:27:51.376Z,98374.16
2019-01-13T17:30:22.591Z,98376.27
2019-01-13T17:32:51.133Z,98381.25
2019-01-13T17:35:19.692Z,98387.13
2019-01-13T17:37:48.057Z,98379.91
2019-01-13T17:40:22.000Z,98383.80
2019-01-13T17:42:50.365Z,98383.69
2019-01-13T17:45:20.886Z,98388.34
2019-01-13T17:47:51.228Z,98384.44
2019-01-13T17:50:21.345Z,98378.18
2019-01-13T17:52:49.802Z,98384.44
2019-01-13T17:55:20.691Z,98388.86
2019-01-13T17:57:50.801Z,98378.92
2019-01-13T18:00:22.347Z,98395.53
2019-01-13T18:02:50.723Z,98393.66
2019-01-13T18:05:19.102Z,98384.33
2019-01-13T18:07:47.477Z,98378.59
2019-01-13T18:10:15.929Z,98386.05
2019-01-13T18:12:44.297Z,98367.75
2019-01-13T18:15:13.213Z,98379.48
2019-01-13T18:17:41.584Z,98384.33
2019-01-13T18:20:23.059Z,98374.20
2019-01-13T18:22:51.705Z,98384.03
2019-01-13T18:25:20.090Z,98389.46
2019-01-13T18:27:48.470Z,98388.03
2019-01-13T18:30:24.746Z,98395.20
2019-01-13T18:32:53.125Z,98383.50
2019-01-13T18:35:22.942Z,98393.17
2019-01-13T18:37:51.484Z,98395.42
2019-01-13T18:40:24.990Z,98389.19
2019-01-13T18:42:53.367Z,98388.78
2019-01-13T18:45:21.747Z,98394.25
2019-01-13T18:47:50.129Z,98387.45
2019-01-13T18:50:20.546Z,98387.27
2019-01-13T18:53:06.893Z,98390.16
2019-01-13T18:55:35.268Z,98395.78
2019-01-13T18:58:04.010Z,98399.79
2019-01-13T19:00:32.439Z,98405.41
2019-01-13T19:03:00.815Z,98397.43
2019-01-13T19:05:29.839Z,98385.27
2019-01-13T19:07:58.315Z,98399.79
2019-01-13T19:10:35.824Z,98410.13
2019-01-13T19:13:28.517Z,98413.63
2019-01-13T19:15:58.541Z,98414.23
2019-01-13T19:18:26.916Z,98406.02
2019-01-13T19:20:55.288Z,98414.39
2019-01-13T19:23:25.298Z,98415.06
2019-01-13T19:25:53.681Z,98407.59
2019-01-13T19:28:22.097Z,98399.61
2019-01-13T19:30:50.478Z,98420.95
2019-01-13T19:33:18.854Z,98420.02
2019-01-13T19:35:47.241Z,98433.48
2019-01-13T19:38:15.680Z,98432.54
2019-01-13T19:40:44.067Z,98440.19
2019-01-13T19:43:12.457Z,98441.58
2019-01-13T19:45:40.839Z,98442.14
2019-01-13T19:48:28.543Z,98452.16
2019-01-13T19:51:16.171Z,98464.83
2019-01-13T19:53:44.543Z,98452.56
2019-01-13T19:56:52.837Z,98459.98
2019-01-13T19:59:40.323Z,98439.80
2019-01-13T20:02:28.025Z,98456.39
2019-01-13T20:05:15.517Z,98467.45
2019-01-13T20:07:43.902Z,98430.91
2019-01-13T20:10:52.193Z,98447.71
2019-01-13T20:13:20.558Z,98451.66
2019-01-13T20:15:48.948Z,98441.67
2019-01-13T20:18:57.225Z,98446.34
2019-01-13T20:21:25.605Z,98439.86
2019-01-13T20:24:33.881Z,98433.67
2019-01-13T20:27:21.379Z,98432.00
2019-01-13T20:29:49.748Z,98430.56
2019-01-13T20:32:37.379Z,98430.92
2019-01-13T20:35:45.682Z,98434.70
2019-01-13T20:41:01.492Z,98427.19
2019-01-13T20:43:29.862Z,98427.05
2019-01-13T20:46:17.359Z,98426.45
2019-01-13T20:51:33.183Z,98427.64
2019-01-13T20:54:07.701Z,98423.68
2019-01-13T20:56:31.653Z,98424.39
2019-01-13T20:59:19.200Z,98424.36
2019-01-13T21:01:47.527Z,98422.34
2019-01-13T21:04:35.146Z,98435.11
2019-01-13T21:09:58.075Z,98438.23
2019-01-13T21:17:35.313Z,98455.65
2019-01-13T21:20:43.594Z,98462.78
2019-01-13T21:23:31.091Z,98466.34
2019-01-13T21:25:59.461Z,98457.30
2019-01-13T21:28:46.960Z,98465.75
2019-01-13T21:31:34.453Z,98491.97
2019-01-13T21:34:02.826Z,98482.60
2019-01-13T21:36:50.461Z,98495.83
2019-01-13T21:39:37.946Z,98497.88
2019-01-13T21:42:06.324Z,98505.36
2019-01-13T21:44:53.809Z,98516.73
2019-01-13T21:49:56.482Z,98544.28
2019-01-13T21:52:44.110Z,98541.30
2019-01-13T21:55:52.440Z,98551.18
2019-01-13T21:58:20.768Z,98552.39
2019-01-13T22:00:49.138Z,98573.63
2019-01-13T22:03:57.438Z,98556.57
2019-01-13T22:06:44.927Z,98564.78
2019-01-13T22:09:32.555Z,98560.13
2019-01-13T22:12:00.934Z,98567.06
2019-01-13T22:14:29.308Z,98568.00
2019-01-13T22:19:45.136Z,98576.48
2019-01-13T22:22:13.497Z,98581.59
2019-01-13T22:25:01.218Z,98597.00
2019-01-13T22:27:29.585Z,98603.91
2019-01-13T22:32:32.402Z,98612.97
2019-01-13T22:35:00.777Z,98612.11
2019-01-13T22:37:29.146Z,98616.28
2019-01-13T22:39:57.530Z,98629.65
2019-01-13T22:43:05.838Z,98625.36
2019-01-13T22:48:21.656Z,98641.45
2019-01-13T22:50:50.024Z,98657.19
2019-01-13T22:58:28.134Z,98658.71
2019-01-13T23:01:36.505Z,98664.92
2019-01-13T23:04:44.800Z,98674.20
2019-01-13T23:07:13.166Z,98680.06
2019-01-13T23:12:15.591Z,98695.90
2019-01-13T23:17:37.069Z,98712.89
2019-01-13T23:20:45.375Z,98724.48
2019-01-13T23:23:32.998Z,98724.15
2019-01-13T23:26:20.539Z,98720.07
2019-01-13T23:31:23.355Z,98752.73
2019-01-13T23:34:10.984Z,98758.22
2019-01-13T23:36:58.596Z,98769.62
2019-01-13T23:42:01.390Z,98783.68
2019-01-13T23:44:48.894Z,98783.22
2019-01-13T23:47:17.266Z,98784.15
2019-01-13T23:52:38.363Z,98801.20
2019-01-13T23:55:46.649Z,98809.11
